Terminal Aerodrome Forecast
Issued by NWS

Home | Current Version | Previous Version | Text Only | Print | Product List | Glossary On
Versions: 1 2 3 4 5 6 7 8 9 10 11 12 13
000
FTUS42 KMLB 212300
TAFISM
TAF
KISM 212330Z 2200/2224 VRB02KT P6SM -RA VCTS SCT040CB BKN060 BKN120
     FM220400 17004KT 6SM -SHRA BR SCT010 BKN020 OVC040
     FM221500 19007KT P6SM VCSH SCT020 BKN050 BKN100=

USA.gov is the U.S. government's official web portal to all federal, state and local government web resources and services.